sensor_id;sensor_type;location;lat;lon;timestamp;pressure;altitude;pressure_sealevel;temperature;humidity
77574;BME280;66710;48.868;9.080;2023-09-18T00:00:47;97407.66;;;20.51;88.59
77574;BME280;66710;48.868;9.080;2023-09-18T00:03:14;97399.66;;;20.33;89.59
77574;BME280;66710;48.868;9.080;2023-09-18T00:05:40;97403.13;;;20.30;90.10
77574;BME280;66710;48.868;9.080;2023-09-18T00:08:05;97400.25;;;20.26;90.56
77574;BME280;66710;48.868;9.080;2023-09-18T00:10:30;97400.59;;;20.25;89.84
77574;BME280;66710;48.868;9.080;2023-09-18T00:12:56;97395.88;;;20.25;90.68
77574;BME280;66710;48.868;9.080;2023-09-18T00:15:22;97400.28;;;20.14;91.10
77574;BME280;66710;48.868;9.080;2023-09-18T00:17:47;97407.31;;;20.12;91.61
77574;BME280;66710;48.868;9.080;2023-09-18T00:20:12;97390.28;;;20.10;91.19
77574;BME280;66710;48.868;9.080;2023-09-18T00:22:39;97389.28;;;20.02;92.20
77574;BME280;66710;48.868;9.080;2023-09-18T00:25:04;97380.63;;;20.03;91.62
77574;BME280;66710;48.868;9.080;2023-09-18T00:27:30;97378.34;;;19.93;93.10
77574;BME280;66710;48.868;9.080;2023-09-18T00:29:55;97372.84;;;19.81;94.32
77574;BME280;66710;48.868;9.080;2023-09-18T00:32:21;97370.53;;;19.70;94.32
77574;BME280;66710;48.868;9.080;2023-09-18T00:34:46;97370.31;;;19.76;95.61
77574;BME280;66710;48.868;9.080;2023-09-18T00:37:11;97364.00;;;19.75;95.57
77574;BME280;66710;48.868;9.080;2023-09-18T00:39:38;97359.59;;;19.74;96.03
77574;BME280;66710;48.868;9.080;2023-09-18T00:42:03;97351.06;;;19.79;94.82
77574;BME280;66710;48.868;9.080;2023-09-18T00:44:28;97354.88;;;19.75;96.09
77574;BME280;66710;48.868;9.080;2023-09-18T00:46:53;97353.28;;;19.74;95.53
77574;BME280;66710;48.868;9.080;2023-09-18T00:49:21;97354.28;;;19.69;96.57
77574;BME280;66710;48.868;9.080;2023-09-18T00:51:47;97351.06;;;19.67;97.21
77574;BME280;66710;48.868;9.080;2023-09-18T00:54:15;97349.47;;;19.66;97.37
77574;BME280;66710;48.868;9.080;2023-09-18T00:56:43;97348.53;;;19.62;98.34
77574;BME280;66710;48.868;9.080;2023-09-18T00:59:09;97336.69;;;19.61;98.92
77574;BME280;66710;48.868;9.080;2023-09-18T01:01:35;97335.53;;;19.62;98.58
77574;BME280;66710;48.868;9.080;2023-09-18T01:04:00;97323.78;;;19.65;98.60
77574;BME280;66710;48.868;9.080;2023-09-18T01:06:26;97318.84;;;19.59;99.25
77574;BME280;66710;48.868;9.080;2023-09-18T01:08:55;97322.56;;;19.50;100.00
77574;BME280;66710;48.868;9.080;2023-09-18T01:11:31;97327.16;;;19.46;100.00
77574;BME280;66710;48.868;9.080;2023-09-18T01:14:21;97331.44;;;19.44;100.00
77574;BME280;66710;48.868;9.080;2023-09-18T01:17:00;97324.66;;;19.41;100.00
77574;BME280;66710;48.868;9.080;2023-09-18T01:19:36;97341.13;;;19.38;100.00
77574;BME280;66710;48.868;9.080;2023-09-18T01:22:03;97338.69;;;19.36;100.00
77574;BME280;66710;48.868;9.080;2023-09-18T01:24:29;97340.97;;;19.34;100.00
77574;BME280;66710;48.868;9.080;2023-09-18T01:26:54;97333.63;;;19.38;100.00
77574;BME280;66710;48.868;9.080;2023-09-18T01:29:19;97331.19;;;19.49;100.00
77574;BME280;66710;48.868;9.080;2023-09-18T01:31:45;97340.38;;;19.53;100.00
77574;BME280;66710;48.868;9.080;2023-09-18T01:34:16;97339.47;;;19.49;100.00
77574;BME280;66710;48.868;9.080;2023-09-18T01:36:43;97349.50;;;19.54;100.00
77574;BME280;66710;48.868;9.080;2023-09-18T01:39:11;97342.88;;;19.70;100.00
77574;BME280;66710;48.868;9.080;2023-09-18T01:41:37;97343.69;;;19.83;99.60
77574;BME280;66710;48.868;9.080;2023-09-18T01:44:03;97347.34;;;20.00;97.90
77574;BME280;66710;48.868;9.080;2023-09-18T01:46:31;97353.72;;;20.16;96.43
77574;BME280;66710;48.868;9.080;2023-09-18T01:48:58;97384.16;;;20.44;93.98
77574;BME280;66710;48.868;9.080;2023-09-18T01:51:24;97377.84;;;20.60;92.35
77574;BME280;66710;48.868;9.080;2023-09-18T01:53:49;97371.84;;;20.70;91.46
77574;BME280;66710;48.868;9.080;2023-09-18T01:56:14;97373.09;;;20.89;88.88
77574;BME280;66710;48.868;9.080;2023-09-18T01:58:40;97367.28;;;21.10;86.13
77574;BME280;66710;48.868;9.080;2023-09-18T02:01:05;97355.06;;;21.11;86.35
77574;BME280;66710;48.868;9.080;2023-09-18T02:03:32;97331.25;;;21.42;82.79
77574;BME280;66710;48.868;9.080;2023-09-18T02:05:57;97316.50;;;21.53;82.03
77574;BME280;66710;48.868;9.080;2023-09-18T02:08:22;97293.50;;;21.53;83.08
77574;BME280;66710;48.868;9.080;2023-09-18T02:10:48;97269.03;;;21.39;85.26
77574;BME280;66710;48.868;9.080;2023-09-18T02:13:13;97260.31;;;21.05;89.47
77574;BME280;66710;48.868;9.080;2023-09-18T02:15:38;97254.19;;;20.80;94.37
77574;BME280;66710;48.868;9.080;2023-09-18T02:18:04;97253.41;;;20.63;99.03
77574;BME280;66710;48.868;9.080;2023-09-18T02:20:29;97230.63;;;20.38;100.00
77574;BME280;66710;48.868;9.080;2023-09-18T02:22:55;97243.53;;;20.34;100.00
77574;BME280;66710;48.868;9.080;2023-09-18T02:25:20;97294.91;;;20.03;100.00
77574;BME280;66710;48.868;9.080;2023-09-18T02:27:46;97324.72;;;19.82;100.00
77574;BME280;66710;48.868;9.080;2023-09-18T02:30:11;97341.47;;;19.36;100.00
77574;BME280;66710;48.868;9.080;2023-09-18T02:32:37;97324.66;;;19.29;100.00
77574;BME280;66710;48.868;9.080;2023-09-18T02:35:02;97312.50;;;19.58;100.00
77574;BME280;66710;48.868;9.080;2023-09-18T02:37:29;97331.44;;;19.31;100.00
77574;BME280;66710;48.868;9.080;2023-09-18T02:39:54;97330.88;;;19.26;100.00
77574;BME280;66710;48.868;9.080;2023-09-18T02:42:20;97341.81;;;18.98;100.00
77574;BME280;66710;48.868;9.080;2023-09-18T02:44:45;97353.53;;;18.82;100.00
77574;BME280;66710;48.868;9.080;2023-09-18T02:47:10;97350.50;;;18.75;100.00
77574;BME280;66710;48.868;9.080;2023-09-18T02:49:36;97348.06;;;18.73;100.00
77574;BME280;66710;48.868;9.080;2023-09-18T02:52:02;97347.31;;;18.85;100.00
77574;BME280;66710;48.868;9.080;2023-09-18T02:54:28;97355.16;;;19.20;100.00
77574;BME280;66710;48.868;9.080;2023-09-18T02:56:53;97354.44;;;19.23;100.00
77574;BME280;66710;48.868;9.080;2023-09-18T02:59:19;97344.00;;;19.29;100.00
77574;BME280;66710;48.868;9.080;2023-09-18T03:01:45;97335.69;;;19.41;100.00
77574;BME280;66710;48.868;9.080;2023-09-18T03:04:10;97333.31;;;19.93;100.00
77574;BME280;66710;48.868;9.080;2023-09-18T03:06:38;97334.75;;;19.49;100.00
77574;BME280;66710;48.868;9.080;2023-09-18T03:09:04;97338.81;;;19.27;100.00
77574;BME280;66710;48.868;9.080;2023-09-18T03:11:29;97345.09;;;18.79;100.00
77574;BME280;66710;48.868;9.080;2023-09-18T03:13:54;97342.31;;;18.66;100.00
77574;BME280;66710;48.868;9.080;2023-09-18T03:16:20;97333.78;;;18.59;100.00
77574;BME280;66710;48.868;9.080;2023-09-18T03:18:45;97327.63;;;18.74;100.00
77574;BME280;66710;48.868;9.080;2023-09-18T03:21:11;97309.13;;;18.87;100.00
77574;BME280;66710;48.868;9.080;2023-09-18T03:23:36;97296.47;;;19.11;100.00
77574;BME280;66710;48.868;9.080;2023-09-18T03:26:02;97290.25;;;18.89;100.00
77574;BME280;66710;48.868;9.080;2023-09-18T03:28:27;97302.59;;;18.92;100.00
77574;BME280;66710;48.868;9.080;2023-09-18T03:30:53;97301.88;;;18.95;100.00
77574;BME280;66710;48.868;9.080;2023-09-18T03:33:18;97315.44;;;19.00;100.00
77574;BME280;66710;48.868;9.080;2023-09-18T03:35:51;97323.00;;;18.66;100.00
77574;BME280;66710;48.868;9.080;2023-09-18T03:38:19;97340.84;;;18.69;100.00
77574;BME280;66710;48.868;9.080;2023-09-18T03:40:46;97339.09;;;18.76;100.00
77574;BME280;66710;48.868;9.080;2023-09-18T03:43:11;97352.09;;;18.64;100.00
77574;BME280;66710;48.868;9.080;2023-09-18T03:45:37;97372.44;;;18.71;100.00
77574;BME280;66710;48.868;9.080;2023-09-18T03:48:03;97383.16;;;18.73;100.00
77574;BME280;66710;48.868;9.080;2023-09-18T03:50:28;97401.28;;;18.74;100.00
77574;BME280;66710;48.868;9.080;2023-09-18T03:52:54;97422.13;;;18.71;100.00
77574;BME280;66710;48.868;9.080;2023-09-18T03:55:19;97426.63;;;18.76;100.00
77574;BME280;66710;48.868;9.080;2023-09-18T03:57:44;97440.31;;;18.72;100.00
77574;BME280;66710;48.868;9.080;2023-09-18T04:00:12;97444.66;;;18.73;100.00
77574;BME280;66710;48.868;9.080;2023-09-18T04:02:38;97461.47;;;18.81;100.00
77574;BME280;66710;48.868;9.080;2023-09-18T04:05:04;97450.75;;;18.79;100.00
77574;BME280;66710;48.868;9.080;2023-09-18T04:07:30;97445.13;;;18.75;100.00
77574;BME280;66710;48.868;9.080;2023-09-18T04:09:56;97447.59;;;18.56;100.00
77574;BME280;66710;48.868;9.080;2023-09-18T04:12:21;97451.97;;;18.57;100.00
77574;BME280;66710;48.868;9.080;2023-09-18T04:14:47;97436.75;;;18.51;100.00
77574;BME280;66710;48.868;9.080;2023-09-18T04:17:12;97419.75;;;18.49;100.00
77574;BME280;66710;48.868;9.080;2023-09-18T04:19:37;97422.34;;;18.66;100.00
77574;BME280;66710;48.868;9.080;2023-09-18T04:22:03;97419.66;;;18.57;100.00
77574;BME280;66710;48.868;9.080;2023-09-18T04:24:29;97397.63;;;18.70;100.00
77574;BME280;66710;48.868;9.080;2023-09-18T04:26:54;97389.41;;;18.82;100.00
77574;BME280;66710;48.868;9.080;2023-09-18T04:29:19;97381.03;;;18.91;100.00
77574;BME280;66710;48.868;9.080;2023-09-18T04:31:45;97361.00;;;18.82;100.00
77574;BME280;66710;48.868;9.080;2023-09-18T04:34:11;97348.50;;;18.63;100.00
77574;BME280;66710;48.868;9.080;2023-09-18T04:36:36;97342.00;;;18.80;100.00
77574;BME280;66710;48.868;9.080;2023-09-18T04:39:05;97314.31;;;18.89;100.00
77574;BME280;66710;48.868;9.080;2023-09-18T04:41:32;97298.13;;;18.42;100.00
77574;BME280;66710;48.868;9.080;2023-09-18T04:43:57;97268.94;;;18.41;100.00
77574;BME280;66710;48.868;9.080;2023-09-18T04:46:23;97269.63;;;18.50;100.00
77574;BME280;66710;48.868;9.080;2023-09-18T04:48:50;97280.44;;;18.55;100.00
77574;BME280;66710;48.868;9.080;2023-09-18T04:51:15;97291.22;;;18.35;100.00
77574;BME280;66710;48.868;9.080;2023-09-18T04:53:40;97297.88;;;18.34;100.00
77574;BME280;66710;48.868;9.080;2023-09-18T04:56:06;97314.06;;;18.24;100.00
77574;BME280;66710;48.868;9.080;2023-09-18T04:58:31;97325.91;;;18.36;100.00
77574;BME280;66710;48.868;9.080;2023-09-18T05:00:58;97324.44;;;18.39;100.00
77574;BME280;66710;48.868;9.080;2023-09-18T05:03:25;97310.69;;;18.51;100.00
77574;BME280;66710;48.868;9.080;2023-09-18T05:05:52;97289.47;;;18.89;100.00
77574;BME280;66710;48.868;9.080;2023-09-18T05:08:17;97277.09;;;18.62;100.00
77574;BME280;66710;48.868;9.080;2023-09-18T05:10:42;97287.97;;;18.33;100.00
77574;BME280;66710;48.868;9.080;2023-09-18T05:13:08;97298.47;;;18.40;100.00
77574;BME280;66710;48.868;9.080;2023-09-18T05:15:34;97311.34;;;18.48;100.00
77574;BME280;66710;48.868;9.080;2023-09-18T05:18:00;97333.06;;;18.37;100.00
77574;BME280;66710;48.868;9.080;2023-09-18T05:20:26;97341.97;;;18.22;100.00
77574;BME280;66710;48.868;9.080;2023-09-18T05:22:53;97331.94;;;18.17;100.00
77574;BME280;66710;48.868;9.080;2023-09-18T05:25:19;97350.97;;;18.10;100.00
77574;BME280;66710;48.868;9.080;2023-09-18T05:27:47;97343.41;;;18.07;100.00
77574;BME280;66710;48.868;9.080;2023-09-18T05:30:18;97349.72;;;18.08;100.00
77574;BME280;66710;48.868;9.080;2023-09-18T05:32:46;97341.50;;;18.20;100.00
77574;BME280;66710;48.868;9.080;2023-09-18T05:35:13;97334.59;;;18.26;100.00
77574;BME280;66710;48.868;9.080;2023-09-18T05:37:40;97340.13;;;18.26;100.00
77574;BME280;66710;48.868;9.080;2023-09-18T05:40:07;97336.78;;;18.21;100.00
77574;BME280;66710;48.868;9.080;2023-09-18T05:42:37;97337.94;;;18.19;100.00
77574;BME280;66710;48.868;9.080;2023-09-18T05:45:03;97344.34;;;18.11;100.00
77574;BME280;66710;48.868;9.080;2023-09-18T05:47:32;97342.09;;;18.26;100.00
77574;BME280;66710;48.868;9.080;2023-09-18T05:49:58;97349.47;;;18.34;100.00
77574;BME280;66710;48.868;9.080;2023-09-18T05:52:24;97357.78;;;18.46;100.00
77574;BME280;66710;48.868;9.080;2023-09-18T05:54:50;97360.88;;;18.45;100.00
77574;BME280;66710;48.868;9.080;2023-09-18T05:57:17;97353.00;;;18.68;100.00
77574;BME280;66710;48.868;9.080;2023-09-18T05:59:43;97342.56;;;18.73;100.00
77574;BME280;66710;48.868;9.080;2023-09-18T06:02:11;97341.88;;;18.76;100.00
77574;BME280;66710;48.868;9.080;2023-09-18T06:04:37;97338.91;;;18.82;100.00
77574;BME280;66710;48.868;9.080;2023-09-18T06:07:05;97327.88;;;18.82;100.00
77574;BME280;66710;48.868;9.080;2023-09-18T06:09:31;97325.13;;;18.82;100.00
77574;BME280;66710;48.868;9.080;2023-09-18T06:11:56;97320.41;;;18.82;100.00
77574;BME280;66710;48.868;9.080;2023-09-18T06:14:22;97327.66;;;18.87;100.00
77574;BME280;66710;48.868;9.080;2023-09-18T06:16:47;97327.31;;;18.88;100.00
77574;BME280;66710;48.868;9.080;2023-09-18T06:19:13;97337.41;;;18.84;100.00
77574;BME280;66710;48.868;9.080;2023-09-18T06:21:39;97322.47;;;18.85;100.00
77574;BME280;66710;48.868;9.080;2023-09-18T06:24:04;97309.13;;;18.87;100.00
77574;BME280;66710;48.868;9.080;2023-09-18T06:26:30;97333.41;;;18.82;100.00
77574;BME280;66710;48.868;9.080;2023-09-18T06:28:55;97339.22;;;18.80;100.00
77574;BME280;66710;48.868;9.080;2023-09-18T06:31:21;97342.59;;;18.86;100.00
77574;BME280;66710;48.868;9.080;2023-09-18T06:33:46;97345.00;;;18.87;100.00
77574;BME280;66710;48.868;9.080;2023-09-18T06:36:13;97349.53;;;18.92;100.00
77574;BME280;66710;48.868;9.080;2023-09-18T06:38:38;97353.66;;;18.98;100.00
77574;BME280;66710;48.868;9.080;2023-09-18T06:41:04;97366.31;;;18.99;100.00
77574;BME280;66710;48.868;9.080;2023-09-18T06:43:29;97368.38;;;19.02;100.00
77574;BME280;66710;48.868;9.080;2023-09-18T06:45:55;97373.44;;;19.12;100.00
77574;BME280;66710;48.868;9.080;2023-09-18T06:48:23;97361.03;;;19.06;100.00
77574;BME280;66710;48.868;9.080;2023-09-18T06:50:48;97353.53;;;19.07;100.00
77574;BME280;66710;48.868;9.080;2023-09-18T06:53:14;97352.28;;;19.04;100.00
77574;BME280;66710;48.868;9.080;2023-09-18T06:55:39;97352.03;;;19.09;100.00
77574;BME280;66710;48.868;9.080;2023-09-18T06:58:05;97361.38;;;19.17;100.00
77574;BME280;66710;48.868;9.080;2023-09-18T07:00:30;97361.72;;;19.16;100.00
77574;BME280;66710;48.868;9.080;2023-09-18T07:02:57;97361.03;;;19.19;100.00
77574;BME280;66710;48.868;9.080;2023-09-18T07:05:22;97355.72;;;19.26;100.00
77574;BME280;66710;48.868;9.080;2023-09-18T07:07:48;97365.50;;;19.23;100.00
77574;BME280;66710;48.868;9.080;2023-09-18T07:10:13;97368.59;;;19.22;100.00
77574;BME280;66710;48.868;9.080;2023-09-18T07:12:38;97377.25;;;19.32;100.00
77574;BME280;66710;48.868;9.080;2023-09-18T07:15:05;97355.16;;;19.45;100.00
77574;BME280;66710;48.868;9.080;2023-09-18T07:17:31;97376.66;;;19.51;100.00
77574;BME280;66710;48.868;9.080;2023-09-18T07:19:57;97377.59;;;19.56;100.00
77574;BME280;66710;48.868;9.080;2023-09-18T07:22:22;97375.97;;;19.55;100.00
77574;BME280;66710;48.868;9.080;2023-09-18T07:24:47;97400.47;;;19.68;100.00
77574;BME280;66710;48.868;9.080;2023-09-18T07:27:13;97406.72;;;19.78;100.00
77574;BME280;66710;48.868;9.080;2023-09-18T07:29:38;97413.41;;;19.52;100.00
77574;BME280;66710;48.868;9.080;2023-09-18T07:32:04;97403.81;;;19.37;100.00
77574;BME280;66710;48.868;9.080;2023-09-18T07:34:29;97407.03;;;19.39;100.00
77574;BME280;66710;48.868;9.080;2023-09-18T07:36:55;97405.78;;;19.61;100.00
77574;BME280;66710;48.868;9.080;2023-09-18T07:39:23;97415.44;;;19.67;100.00
77574;BME280;66710;48.868;9.080;2023-09-18T07:41:48;97419.47;;;19.70;100.00
77574;BME280;66710;48.868;9.080;2023-09-18T07:44:22;97413.28;;;19.73;100.00
77574;BME280;66710;48.868;9.080;2023-09-18T07:46:48;97420.88;;;19.76;100.00
77574;BME280;66710;48.868;9.080;2023-09-18T07:49:13;97425.47;;;19.72;100.00
77574;BME280;66710;48.868;9.080;2023-09-18T07:51:39;97446.31;;;19.69;100.00
77574;BME280;66710;48.868;9.080;2023-09-18T07:54:06;97449.44;;;19.68;100.00
77574;BME280;66710;48.868;9.080;2023-09-18T07:56:32;97437.66;;;19.71;100.00
77574;BME280;66710;48.868;9.080;2023-09-18T07:58:59;97440.56;;;19.75;100.00
77574;BME280;66710;48.868;9.080;2023-09-18T08:01:25;97454.88;;;19.89;100.00
77574;BME280;66710;48.868;9.080;2023-09-18T08:03:50;97450.91;;;19.90;100.00
77574;BME280;66710;48.868;9.080;2023-09-18T08:06:15;97459.44;;;19.85;100.00
77574;BME280;66710;48.868;9.080;2023-09-18T08:08:43;97446.47;;;19.85;100.00
77574;BME280;66710;48.868;9.080;2023-09-18T08:11:09;97439.28;;;19.97;100.00
77574;BME280;66710;48.868;9.080;2023-09-18T08:13:34;97444.47;;;19.98;100.00
77574;BME280;66710;48.868;9.080;2023-09-18T08:16:00;97447.22;;;19.98;100.00
77574;BME280;66710;48.868;9.080;2023-09-18T08:18:26;97463.81;;;19.98;100.00
77574;BME280;66710;48.868;9.080;2023-09-18T08:20:52;97469.47;;;19.89;100.00
77574;BME280;66710;48.868;9.080;2023-09-18T08:23:18;97479.25;;;19.87;100.00
77574;BME280;66710;48.868;9.080;2023-09-18T08:25:44;97479.03;;;19.92;100.00
77574;BME280;66710;48.868;9.080;2023-09-18T08:28:09;97473.59;;;20.08;100.00
77574;BME280;66710;48.868;9.080;2023-09-18T08:30:35;97478.75;;;20.22;100.00
77574;BME280;66710;48.868;9.080;2023-09-18T08:33:02;97485.66;;;20.28;100.00
77574;BME280;66710;48.868;9.080;2023-09-18T08:35:27;97489.25;;;20.16;99.98
77574;BME280;66710;48.868;9.080;2023-09-18T08:37:55;97505.88;;;20.04;100.00
77574;BME280;66710;48.868;9.080;2023-09-18T08:40:23;97515.31;;;20.03;100.00
77574;BME280;66710;48.868;9.080;2023-09-18T08:42:51;97508.41;;;19.84;100.00
77574;BME280;66710;48.868;9.080;2023-09-18T08:45:30;97501.88;;;19.77;100.00
77574;BME280;66710;48.868;9.080;2023-09-18T08:47:57;97497.34;;;19.72;100.00
77574;BME280;66710;48.868;9.080;2023-09-18T08:50:24;97504.59;;;19.52;100.00
77574;BME280;66710;48.868;9.080;2023-09-18T08:52:50;97503.63;;;19.36;100.00
77574;BME280;66710;48.868;9.080;2023-09-18T08:55:16;97493.25;;;19.20;100.00
77574;BME280;66710;48.868;9.080;2023-09-18T08:57:42;97507.84;;;19.08;100.00
77574;BME280;66710;48.868;9.080;2023-09-18T09:00:11;97501.94;;;18.76;100.00
77574;BME280;66710;48.868;9.080;2023-09-18T09:02:41;97503.03;;;18.63;100.00
77574;BME280;66710;48.868;9.080;2023-09-18T09:05:07;97519.50;;;18.51;100.00
77574;BME280;66710;48.868;9.080;2023-09-18T09:07:32;97524.22;;;18.50;100.00
77574;BME280;66710;48.868;9.080;2023-09-18T09:09:58;97531.78;;;18.41;100.00
77574;BME280;66710;48.868;9.080;2023-09-18T09:15:33;97554.56;;;18.29;100.00
77574;BME280;66710;48.868;9.080;2023-09-18T09:18:11;97549.56;;;18.23;100.00
77574;BME280;66710;48.868;9.080;2023-09-18T09:20:36;97554.28;;;18.22;100.00
77574;BME280;66710;48.868;9.080;2023-09-18T09:23:03;97560.19;;;18.12;100.00
77574;BME280;66710;48.868;9.080;2023-09-18T09:25:31;97552.56;;;18.09;100.00
77574;BME280;66710;48.868;9.080;2023-09-18T09:27:57;97543.69;;;18.03;100.00
77574;BME280;66710;48.868;9.080;2023-09-18T09:30:26;97549.25;;;17.94;100.00
77574;BME280;66710;48.868;9.080;2023-09-18T09:32:55;97533.53;;;17.95;100.00
77574;BME280;66710;48.868;9.080;2023-09-18T09:35:25;97532.09;;;17.89;100.00
77574;BME280;66710;48.868;9.080;2023-09-18T09:37:57;97516.50;;;17.84;100.00
77574;BME280;66710;48.868;9.080;2023-09-18T09:40:24;97526.41;;;17.85;100.00
77574;BME280;66710;48.868;9.080;2023-09-18T09:42:52;97528.38;;;17.85;100.00
77574;BME280;66710;48.868;9.080;2023-09-18T09:45:19;97518.44;;;17.92;100.00
77574;BME280;66710;48.868;9.080;2023-09-18T09:47:45;97512.56;;;18.03;100.00
77574;BME280;66710;48.868;9.080;2023-09-18T09:50:15;97497.28;;;18.05;100.00
77574;BME280;66710;48.868;9.080;2023-09-18T09:52:47;97502.94;;;18.09;100.00
77574;BME280;66710;48.868;9.080;2023-09-18T09:57:47;97507.94;;;18.15;100.00
77574;BME280;66710;48.868;9.080;2023-09-18T10:00:14;97486.06;;;18.10;100.00
77574;BME280;66710;48.868;9.080;2023-09-18T10:03:03;97477.53;;;18.03;100.00
77574;BME280;66710;48.868;9.080;2023-09-18T10:05:41;97471.75;;;18.17;100.00
77574;BME280;66710;48.868;9.080;2023-09-18T10:08:11;97475.88;;;18.11;100.00
77574;BME280;66710;48.868;9.080;2023-09-18T10:10:40;97472.63;;;18.09;100.00
77574;BME280;66710;48.868;9.080;2023-09-18T10:13:10;97480.28;;;18.03;100.00
77574;BME280;66710;48.868;9.080;2023-09-18T10:15:38;97504.94;;;17.99;100.00
77574;BME280;66710;48.868;9.080;2023-09-18T10:18:15;97550.34;;;18.02;100.00
77574;BME280;66710;48.868;9.080;2023-09-18T10:20:44;97560.22;;;18.03;100.00
77574;BME280;66710;48.868;9.080;2023-09-18T10:23:26;97558.91;;;18.09;100.00
77574;BME280;66710;48.868;9.080;2023-09-18T10:25:59;97561.19;;;18.07;100.00
77574;BME280;66710;48.868;9.080;2023-09-18T10:28:25;97557.47;;;18.03;100.00
77574;BME280;66710;48.868;9.080;2023-09-18T10:30:56;97552.97;;;17.98;100.00
77574;BME280;66710;48.868;9.080;2023-09-18T10:33:21;97566.59;;;17.95;100.00
77574;BME280;66710;48.868;9.080;2023-09-18T10:35:48;97563.84;;;17.95;100.00
77574;BME280;66710;48.868;9.080;2023-09-18T10:38:15;97553.44;;;18.00;100.00
77574;BME280;66710;48.868;9.080;2023-09-18T10:40:43;97565.41;;;18.05;100.00
77574;BME280;66710;48.868;9.080;2023-09-18T10:43:10;97562.31;;;18.06;100.00
77574;BME280;66710;48.868;9.080;2023-09-18T10:45:36;97551.44;;;18.10;100.00
77574;BME280;66710;48.868;9.080;2023-09-18T10:48:03;97544.78;;;18.11;100.00
77574;BME280;66710;48.868;9.080;2023-09-18T10:50:29;97545.44;;;18.08;100.00
77574;BME280;66710;48.868;9.080;2023-09-18T10:52:57;97549.75;;;18.17;100.00
77574;BME280;66710;48.868;9.080;2023-09-18T10:55:23;97549.75;;;18.17;100.00
77574;BME280;66710;48.868;9.080;2023-09-18T10:57:58;97537.88;;;18.26;100.00
77574;BME280;66710;48.868;9.080;2023-09-18T11:00:28;97535.78;;;18.23;100.00
77574;BME280;66710;48.868;9.080;2023-09-18T11:05:37;97536.25;;;18.25;100.00
77574;BME280;66710;48.868;9.080;2023-09-18T11:08:24;97526.84;;;18.26;100.00
77574;BME280;66710;48.868;9.080;2023-09-18T11:11:07;97522.81;;;18.23;100.00
77574;BME280;66710;48.868;9.080;2023-09-18T11:13:43;97514.75;;;18.18;100.00
77574;BME280;66710;48.868;9.080;2023-09-18T11:21:31;97529.41;;;18.31;100.00
77574;BME280;66710;48.868;9.080;2023-09-18T11:24:06;97531.16;;;18.35;100.00
77574;BME280;66710;48.868;9.080;2023-09-18T11:26:37;97538.56;;;18.44;100.00
77574;BME280;66710;48.868;9.080;2023-09-18T11:29:06;97527.31;;;18.49;100.00
77574;BME280;66710;48.868;9.080;2023-09-18T11:31:44;97517.78;;;18.46;100.00
77574;BME280;66710;48.868;9.080;2023-09-18T11:34:19;97522.59;;;18.49;100.00
77574;BME280;66710;48.868;9.080;2023-09-18T11:36:45;97524.69;;;18.52;100.00
77574;BME280;66710;48.868;9.080;2023-09-18T11:39:12;97540.84;;;18.63;100.00
77574;BME280;66710;48.868;9.080;2023-09-18T11:41:38;97552.16;;;18.70;100.00
77574;BME280;66710;48.868;9.080;2023-09-18T11:46:32;97550.81;;;18.76;100.00
77574;BME280;66710;48.868;9.080;2023-09-18T11:48:59;97567.25;;;18.72;100.00
77574;BME280;66710;48.868;9.080;2023-09-18T11:51:25;97554.84;;;18.79;100.00
77574;BME280;66710;48.868;9.080;2023-09-18T11:53:56;97562.00;;;18.80;100.00
77574;BME280;66710;48.868;9.080;2023-09-18T11:56:22;97559.31;;;18.92;100.00
77574;BME280;66710;48.868;9.080;2023-09-18T11:58:48;97554.53;;;19.01;100.00
77574;BME280;66710;48.868;9.080;2023-09-18T12:01:14;97571.09;;;19.01;100.00
77574;BME280;66710;48.868;9.080;2023-09-18T12:03:41;97573.00;;;18.88;100.00
77574;BME280;66710;48.868;9.080;2023-09-18T12:06:06;97592.50;;;19.04;100.00
77574;BME280;66710;48.868;9.080;2023-09-18T12:08:35;97574.78;;;19.05;100.00
77574;BME280;66710;48.868;9.080;2023-09-18T12:11:05;97567.41;;;18.97;100.00
77574;BME280;66710;48.868;9.080;2023-09-18T12:13:34;97582.66;;;18.94;100.00
77574;BME280;66710;48.868;9.080;2023-09-18T12:16:03;97553.59;;;18.97;100.00
77574;BME280;66710;48.868;9.080;2023-09-18T12:18:31;97551.44;;;19.03;100.00
77574;BME280;66710;48.868;9.080;2023-09-18T12:20:59;97555.31;;;19.02;100.00
77574;BME280;66710;48.868;9.080;2023-09-18T12:23:24;97560.72;;;18.98;100.00
77574;BME280;66710;48.868;9.080;2023-09-18T12:25:57;97554.78;;;19.08;100.00
77574;BME280;66710;48.868;9.080;2023-09-18T12:28:25;97558.00;;;19.10;100.00
77574;BME280;66710;48.868;9.080;2023-09-18T12:30:53;97555.28;;;19.23;100.00
77574;BME280;66710;48.868;9.080;2023-09-18T12:33:22;97544.34;;;19.26;100.00
77574;BME280;66710;48.868;9.080;2023-09-18T12:35:49;97543.13;;;19.36;100.00
77574;BME280;66710;48.868;9.080;2023-09-18T12:38:18;97539.78;;;19.43;100.00
77574;BME280;66710;48.868;9.080;2023-09-18T12:40:48;97529.47;;;19.64;100.00
77574;BME280;66710;48.868;9.080;2023-09-18T12:43:14;97533.41;;;19.76;100.00
77574;BME280;66710;48.868;9.080;2023-09-18T12:45:43;97538.94;;;19.76;100.00
77574;BME280;66710;48.868;9.080;2023-09-18T12:48:09;97541.16;;;19.95;100.00
77574;BME280;66710;48.868;9.080;2023-09-18T12:50:35;97538.81;;;20.09;100.00
77574;BME280;66710;48.868;9.080;2023-09-18T12:53:11;97542.09;;;20.52;100.00
77574;BME280;66710;48.868;9.080;2023-09-18T12:55:37;97545.09;;;20.46;100.00
77574;BME280;66710;48.868;9.080;2023-09-18T12:58:03;97541.25;;;20.23;100.00
77574;BME280;66710;48.868;9.080;2023-09-18T13:00:32;97550.91;;;20.17;100.00
77574;BME280;66710;48.868;9.080;2023-09-18T13:02:58;97546.31;;;20.33;100.00
77574;BME280;66710;48.868;9.080;2023-09-18T13:05:24;97549.41;;;20.44;100.00